« Back
NWS Peachtree City, Ga » Text Product » CSG Terminal Aerodrome Forecast

Printer-friendly Version
Current Version              Previous Versions:   1  2  3  4  5  6  7  8  9  

Terminal Aerodrome Forecast

FTUS42 KFFC 291131
KCSG 291131Z 2912/3012 00000KT P6SM SCT120
     FM291500 22005KT P6SM BKN080
     FM291800 25005KT P6SM SCT040 BKN080
     FM300000 16004KT P6SM BKN040
     FM300500 VRB03KT P6SM BKN030=

USA.gov is the U.S. government's official web portal to all federal, state and local government web resources and services.